sensor_id;sensor_type;location;lat;lon;timestamp;P1;P2;P0
46885;PMS5003;32622;48.202;11.326;2023-08-21T00:00:43;20;20;
46885;PMS5003;32622;48.202;11.326;2023-08-21T00:02:45;21;20;
46885;PMS5003;32622;48.202;11.326;2023-08-21T00:04:47;21;20;
46885;PMS5003;32622;48.202;11.326;2023-08-21T00:06:49;21;20;
46885;PMS5003;32622;48.202;11.326;2023-08-21T00:08:51;22;20;
46885;PMS5003;32622;48.202;11.326;2023-08-21T00:10:53;22;20;
46885;PMS5003;32622;48.202;11.326;2023-08-21T00:12:56;22;20;
46885;PMS5003;32622;48.202;11.326;2023-08-21T00:14:58;22;21;
46885;PMS5003;32622;48.202;11.326;2023-08-21T00:17:01;22;21;
46885;PMS5003;32622;48.202;11.326;2023-08-21T00:19:03;22;21;
46885;PMS5003;32622;48.202;11.326;2023-08-21T00:21:05;20;19;
46885;PMS5003;32622;48.202;11.326;2023-08-21T00:23:07;20;19;
46885;PMS5003;32622;48.202;11.326;2023-08-21T00:25:10;20;19;
46885;PMS5003;32622;48.202;11.326;2023-08-21T00:27:12;20;19;
46885;PMS5003;32622;48.202;11.326;2023-08-21T00:29:15;20;19;
46885;PMS5003;32622;48.202;11.326;2023-08-21T00:31:17;20;19;
46885;PMS5003;32622;48.202;11.326;2023-08-21T00:33:19;19;18;
46885;PMS5003;32622;48.202;11.326;2023-08-21T00:35:21;19;18;
46885;PMS5003;32622;48.202;11.326;2023-08-21T00:37:23;19;18;
46885;PMS5003;32622;48.202;11.326;2023-08-21T00:39:25;18;17;
46885;PMS5003;32622;48.202;11.326;2023-08-21T00:41:28;18;17;
46885;PMS5003;32622;48.202;11.326;2023-08-21T00:43:30;18;17;
46885;PMS5003;32622;48.202;11.326;2023-08-21T00:45:32;18;17;
46885;PMS5003;32622;48.202;11.326;2023-08-21T00:47:34;18;17;
46885;PMS5003;32622;48.202;11.326;2023-08-21T00:49:37;18;17;
46885;PMS5003;32622;48.202;11.326;2023-08-21T00:51:39;17;16;
46885;PMS5003;32622;48.202;11.326;2023-08-21T00:53:41;17;16;
46885;PMS5003;32622;48.202;11.326;2023-08-21T00:55:43;17;16;
46885;PMS5003;32622;48.202;11.326;2023-08-21T00:57:46;17;16;
46885;PMS5003;32622;48.202;11.326;2023-08-21T00:59:49;17;16;
46885;PMS5003;32622;48.202;11.326;2023-08-21T01:01:51;17;16;
46885;PMS5003;32622;48.202;11.326;2023-08-21T01:03:53;15;15;
46885;PMS5003;32622;48.202;11.326;2023-08-21T01:05:56;15;15;
46885;PMS5003;32622;48.202;11.326;2023-08-21T01:08:01;15;15;
46885;PMS5003;32622;48.202;11.326;2023-08-21T01:10:07;16;16;
46885;PMS5003;32622;48.202;11.326;2023-08-21T01:12:19;16;16;
46885;PMS5003;32622;48.202;11.326;2023-08-21T01:14:27;16;16;
46885;PMS5003;32622;48.202;11.326;2023-08-21T01:16:35;16;16;
46885;PMS5003;32622;48.202;11.326;2023-08-21T01:18:38;16;16;
46885;PMS5003;32622;48.202;11.326;2023-08-21T01:20:41;16;16;
46885;PMS5003;32622;48.202;11.326;2023-08-21T01:22:44;17;17;
46885;PMS5003;32622;48.202;11.326;2023-08-21T01:24:46;17;17;
46885;PMS5003;32622;48.202;11.326;2023-08-21T01:26:48;17;17;
46885;PMS5003;32622;48.202;11.326;2023-08-21T01:28:51;17;17;
46885;PMS5003;32622;48.202;11.326;2023-08-21T01:30:55;17;17;
46885;PMS5003;32622;48.202;11.326;2023-08-21T01:33:05;17;17;
46885;PMS5003;32622;48.202;11.326;2023-08-21T01:35:12;17;17;
46885;PMS5003;32622;48.202;11.326;2023-08-21T01:37:14;17;17;
46885;PMS5003;32622;48.202;11.326;2023-08-21T01:39:18;17;17;
46885;PMS5003;32622;48.202;11.326;2023-08-21T01:41:23;16;16;
46885;PMS5003;32622;48.202;11.326;2023-08-21T01:43:25;16;16;
46885;PMS5003;32622;48.202;11.326;2023-08-21T01:45:27;16;16;
46885;PMS5003;32622;48.202;11.326;2023-08-21T01:47:29;16;16;
46885;PMS5003;32622;48.202;11.326;2023-08-21T01:49:32;16;16;
46885;PMS5003;32622;48.202;11.326;2023-08-21T01:51:34;16;16;
46885;PMS5003;32622;48.202;11.326;2023-08-21T01:53:36;16;16;
46885;PMS5003;32622;48.202;11.326;2023-08-21T01:55:38;16;16;
46885;PMS5003;32622;48.202;11.326;2023-08-21T01:57:40;16;16;
46885;PMS5003;32622;48.202;11.326;2023-08-21T01:59:42;17;17;
46885;PMS5003;32622;48.202;11.326;2023-08-21T02:01:44;17;17;
46885;PMS5003;32622;48.202;11.326;2023-08-21T02:03:46;17;17;
46885;PMS5003;32622;48.202;11.326;2023-08-21T02:05:48;17;17;
46885;PMS5003;32622;48.202;11.326;2023-08-21T02:07:50;17;17;
46885;PMS5003;32622;48.202;11.326;2023-08-21T02:09:53;17;17;
46885;PMS5003;32622;48.202;11.326;2023-08-21T02:11:55;16;16;
46885;PMS5003;32622;48.202;11.326;2023-08-21T02:13:57;16;16;
46885;PMS5003;32622;48.202;11.326;2023-08-21T02:15:59;16;16;
46885;PMS5003;32622;48.202;11.326;2023-08-21T02:18:01;17;17;
46885;PMS5003;32622;48.202;11.326;2023-08-21T02:20:04;17;17;
46885;PMS5003;32622;48.202;11.326;2023-08-21T02:22:07;17;17;
46885;PMS5003;32622;48.202;11.326;2023-08-21T02:24:09;18;18;
46885;PMS5003;32622;48.202;11.326;2023-08-21T02:26:11;18;18;
46885;PMS5003;32622;48.202;11.326;2023-08-21T02:28:13;18;18;
46885;PMS5003;32622;48.202;11.326;2023-08-21T02:30:15;18;18;
46885;PMS5003;32622;48.202;11.326;2023-08-21T02:32:17;18;18;
46885;PMS5003;32622;48.202;11.326;2023-08-21T02:34:20;18;18;
46885;PMS5003;32622;48.202;11.326;2023-08-21T02:36:22;18;18;
46885;PMS5003;32622;48.202;11.326;2023-08-21T02:38:24;18;18;
46885;PMS5003;32622;48.202;11.326;2023-08-21T02:40:26;18;18;
46885;PMS5003;32622;48.202;11.326;2023-08-21T02:42:28;20;20;
46885;PMS5003;32622;48.202;11.326;2023-08-21T02:44:31;20;20;
46885;PMS5003;32622;48.202;11.326;2023-08-21T02:46:33;20;20;
46885;PMS5003;32622;48.202;11.326;2023-08-21T02:48:35;20;20;
46885;PMS5003;32622;48.202;11.326;2023-08-21T02:50:37;20;20;
46885;PMS5003;32622;48.202;11.326;2023-08-21T02:52:39;20;20;
46885;PMS5003;32622;48.202;11.326;2023-08-21T02:54:41;20;20;
46885;PMS5003;32622;48.202;11.326;2023-08-21T02:56:43;20;20;
46885;PMS5003;32622;48.202;11.326;2023-08-21T02:58:45;20;20;
46885;PMS5003;32622;48.202;11.326;2023-08-21T03:00:47;20;20;
46885;PMS5003;32622;48.202;11.326;2023-08-21T03:02:49;20;20;
46885;PMS5003;32622;48.202;11.326;2023-08-21T03:04:52;20;20;
46885;PMS5003;32622;48.202;11.326;2023-08-21T03:06:54;19;19;
46885;PMS5003;32622;48.202;11.326;2023-08-21T03:08:56;19;19;
46885;PMS5003;32622;48.202;11.326;2023-08-21T03:10:58;19;19;
46885;PMS5003;32622;48.202;11.326;2023-08-21T03:13:00;20;20;
46885;PMS5003;32622;48.202;11.326;2023-08-21T03:15:02;20;20;
46885;PMS5003;32622;48.202;11.326;2023-08-21T03:17:05;20;20;
46885;PMS5003;32622;48.202;11.326;2023-08-21T03:19:07;19;19;
46885;PMS5003;32622;48.202;11.326;2023-08-21T03:21:09;19;19;
46885;PMS5003;32622;48.202;11.326;2023-08-21T03:23:12;19;19;
46885;PMS5003;32622;48.202;11.326;2023-08-21T03:25:14;19;19;
46885;PMS5003;32622;48.202;11.326;2023-08-21T03:27:16;19;19;
46885;PMS5003;32622;48.202;11.326;2023-08-21T03:29:18;19;19;
46885;PMS5003;32622;48.202;11.326;2023-08-21T03:31:20;18;18;
46885;PMS5003;32622;48.202;11.326;2023-08-21T03:33:22;18;18;
46885;PMS5003;32622;48.202;11.326;2023-08-21T03:35:25;18;18;
46885;PMS5003;32622;48.202;11.326;2023-08-21T03:37:27;18;18;
46885;PMS5003;32622;48.202;11.326;2023-08-21T03:39:29;17;17;
46885;PMS5003;32622;48.202;11.326;2023-08-21T03:41:31;17;17;
46885;PMS5003;32622;48.202;11.326;2023-08-21T03:43:33;16;16;
46885;PMS5003;32622;48.202;11.326;2023-08-21T03:45:35;17;17;
46885;PMS5003;32622;48.202;11.326;2023-08-21T03:47:37;17;17;
46885;PMS5003;32622;48.202;11.326;2023-08-21T03:49:40;17;17;
46885;PMS5003;32622;48.202;11.326;2023-08-21T03:51:42;17;17;
46885;PMS5003;32622;48.202;11.326;2023-08-21T03:53:44;17;17;
46885;PMS5003;32622;48.202;11.326;2023-08-21T03:55:46;18;18;
46885;PMS5003;32622;48.202;11.326;2023-08-21T03:57:48;18;18;
46885;PMS5003;32622;48.202;11.326;2023-08-21T03:59:50;18;18;
46885;PMS5003;32622;48.202;11.326;2023-08-21T04:01:52;18;18;
46885;PMS5003;32622;48.202;11.326;2023-08-21T04:03:54;18;18;
46885;PMS5003;32622;48.202;11.326;2023-08-21T04:05:56;18;18;
46885;PMS5003;32622;48.202;11.326;2023-08-21T04:07:58;19;19;
46885;PMS5003;32622;48.202;11.326;2023-08-21T04:10:01;19;19;
46885;PMS5003;32622;48.202;11.326;2023-08-21T04:12:03;19;19;
46885;PMS5003;32622;48.202;11.326;2023-08-21T04:14:05;18;18;
46885;PMS5003;32622;48.202;11.326;2023-08-21T04:16:07;18;18;
46885;PMS5003;32622;48.202;11.326;2023-08-21T04:18:09;18;18;
46885;PMS5003;32622;48.202;11.326;2023-08-21T04:20:11;19;19;
46885;PMS5003;32622;48.202;11.326;2023-08-21T04:22:14;19;19;
46885;PMS5003;32622;48.202;11.326;2023-08-21T04:24:16;19;19;
46885;PMS5003;32622;48.202;11.326;2023-08-21T04:26:18;19;19;
46885;PMS5003;32622;48.202;11.326;2023-08-21T04:28:20;19;19;
46885;PMS5003;32622;48.202;11.326;2023-08-21T04:30:22;19;19;
46885;PMS5003;32622;48.202;11.326;2023-08-21T04:32:24;18;18;
46885;PMS5003;32622;48.202;11.326;2023-08-21T04:34:26;18;18;
46885;PMS5003;32622;48.202;11.326;2023-08-21T04:36:28;18;18;
46885;PMS5003;32622;48.202;11.326;2023-08-21T04:38:30;18;18;
46885;PMS5003;32622;48.202;11.326;2023-08-21T04:40:32;18;18;
46885;PMS5003;32622;48.202;11.326;2023-08-21T04:42:35;18;18;
46885;PMS5003;32622;48.202;11.326;2023-08-21T04:44:37;19;19;
46885;PMS5003;32622;48.202;11.326;2023-08-21T04:46:39;19;19;
46885;PMS5003;32622;48.202;11.326;2023-08-21T04:48:41;19;19;
46885;PMS5003;32622;48.202;11.326;2023-08-21T04:50:43;18;18;
46885;PMS5003;32622;48.202;11.326;2023-08-21T04:52:45;18;18;
46885;PMS5003;32622;48.202;11.326;2023-08-21T04:54:47;18;18;
46885;PMS5003;32622;48.202;11.326;2023-08-21T04:56:50;17;17;
46885;PMS5003;32622;48.202;11.326;2023-08-21T04:58:52;17;17;
46885;PMS5003;32622;48.202;11.326;2023-08-21T05:00:54;17;17;
46885;PMS5003;32622;48.202;11.326;2023-08-21T05:02:56;18;18;
46885;PMS5003;32622;48.202;11.326;2023-08-21T05:04:59;18;18;
46885;PMS5003;32622;48.202;11.326;2023-08-21T05:07:01;18;18;
46885;PMS5003;32622;48.202;11.326;2023-08-21T05:09:03;16;16;
46885;PMS5003;32622;48.202;11.326;2023-08-21T05:11:05;16;16;
46885;PMS5003;32622;48.202;11.326;2023-08-21T05:13:07;16;16;
46885;PMS5003;32622;48.202;11.326;2023-08-21T05:15:09;19;16;
46885;PMS5003;32622;48.202;11.326;2023-08-21T05:17:12;20;17;
46885;PMS5003;32622;48.202;11.326;2023-08-21T05:19:14;20;17;
46885;PMS5003;32622;48.202;11.326;2023-08-21T05:21:16;20;17;
46885;PMS5003;32622;48.202;11.326;2023-08-21T05:23:18;20;17;
46885;PMS5003;32622;48.202;11.326;2023-08-21T05:25:20;20;17;
46885;PMS5003;32622;48.202;11.326;2023-08-21T05:27:22;21;18;
46885;PMS5003;32622;48.202;11.326;2023-08-21T05:29:24;21;18;
46885;PMS5003;32622;48.202;11.326;2023-08-21T05:31:26;20;17;
46885;PMS5003;32622;48.202;11.326;2023-08-21T05:33:29;19;17;
46885;PMS5003;32622;48.202;11.326;2023-08-21T05:35:32;19;17;
46885;PMS5003;32622;48.202;11.326;2023-08-21T05:37:35;20;18;
46885;PMS5003;32622;48.202;11.326;2023-08-21T05:39:37;20;17;
46885;PMS5003;32622;48.202;11.326;2023-08-21T05:41:39;20;17;
46885;PMS5003;32622;48.202;11.326;2023-08-21T05:43:41;20;17;
46885;PMS5003;32622;48.202;11.326;2023-08-21T05:45:43;20;17;
46885;PMS5003;32622;48.202;11.326;2023-08-21T05:47:45;20;17;
46885;PMS5003;32622;48.202;11.326;2023-08-21T05:49:47;20;17;
46885;PMS5003;32622;48.202;11.326;2023-08-21T05:51:49;21;18;
46885;PMS5003;32622;48.202;11.326;2023-08-21T05:53:51;21;18;
46885;PMS5003;32622;48.202;11.326;2023-08-21T05:55:54;21;18;
46885;PMS5003;32622;48.202;11.326;2023-08-21T05:57:56;21;18;
46885;PMS5003;32622;48.202;11.326;2023-08-21T05:59:58;21;18;
46885;PMS5003;32622;48.202;11.326;2023-08-21T06:02:00;21;18;
46885;PMS5003;32622;48.202;11.326;2023-08-21T06:04:02;21;18;
46885;PMS5003;32622;48.202;11.326;2023-08-21T06:06:05;21;18;
46885;PMS5003;32622;48.202;11.326;2023-08-21T06:08:07;21;18;
46885;PMS5003;32622;48.202;11.326;2023-08-21T06:10:09;20;18;
46885;PMS5003;32622;48.202;11.326;2023-08-21T06:12:11;20;18;
46885;PMS5003;32622;48.202;11.326;2023-08-21T06:14:13;20;18;
46885;PMS5003;32622;48.202;11.326;2023-08-21T06:16:15;19;19;
46885;PMS5003;32622;48.202;11.326;2023-08-21T06:18:17;19;19;
46885;PMS5003;32622;48.202;11.326;2023-08-21T06:20:20;18;18;
46885;PMS5003;32622;48.202;11.326;2023-08-21T06:22:22;18;18;
46885;PMS5003;32622;48.202;11.326;2023-08-21T06:24:24;19;19;
46885;PMS5003;32622;48.202;11.326;2023-08-21T06:26:26;19;19;
46885;PMS5003;32622;48.202;11.326;2023-08-21T06:28:28;19;19;
46885;PMS5003;32622;48.202;11.326;2023-08-21T06:30:30;19;19;
46885;PMS5003;32622;48.202;11.326;2023-08-21T06:32:32;18;18;
46885;PMS5003;32622;48.202;11.326;2023-08-21T06:34:35;18;18;
46885;PMS5003;32622;48.202;11.326;2023-08-21T06:36:37;17;17;
46885;PMS5003;32622;48.202;11.326;2023-08-21T06:38:39;17;17;
46885;PMS5003;32622;48.202;11.326;2023-08-21T06:40:41;18;18;
46885;PMS5003;32622;48.202;11.326;2023-08-21T06:42:43;18;18;
46885;PMS5003;32622;48.202;11.326;2023-08-21T06:44:45;18;18;
46885;PMS5003;32622;48.202;11.326;2023-08-21T06:46:47;18;18;
46885;PMS5003;32622;48.202;11.326;2023-08-21T06:48:49;18;18;
46885;PMS5003;32622;48.202;11.326;2023-08-21T06:50:51;18;18;
46885;PMS5003;32622;48.202;11.326;2023-08-21T06:52:54;17;17;
46885;PMS5003;32622;48.202;11.326;2023-08-21T06:54:56;17;17;
46885;PMS5003;32622;48.202;11.326;2023-08-21T06:56:58;17;17;
46885;PMS5003;32622;48.202;11.326;2023-08-21T06:59:00;18;18;
46885;PMS5003;32622;48.202;11.326;2023-08-21T07:01:02;18;18;
46885;PMS5003;32622;48.202;11.326;2023-08-21T07:03:04;18;18;
46885;PMS5003;32622;48.202;11.326;2023-08-21T07:05:07;17;17;
46885;PMS5003;32622;48.202;11.326;2023-08-21T07:07:09;17;17;
46885;PMS5003;32622;48.202;11.326;2023-08-21T07:09:11;17;17;
46885;PMS5003;32622;48.202;11.326;2023-08-21T07:11:13;18;18;
46885;PMS5003;32622;48.202;11.326;2023-08-21T07:13:15;18;18;
46885;PMS5003;32622;48.202;11.326;2023-08-21T07:15:28;18;18;
46885;PMS5003;32622;48.202;11.326;2023-08-21T07:17:42;18;18;
46885;PMS5003;32622;48.202;11.326;2023-08-21T07:19:44;18;18;
46885;PMS5003;32622;48.202;11.326;2023-08-21T07:21:46;18;18;
46885;PMS5003;32622;48.202;11.326;2023-08-21T07:23:48;20;20;
46885;PMS5003;32622;48.202;11.326;2023-08-21T07:25:50;20;20;
46885;PMS5003;32622;48.202;11.326;2023-08-21T07:27:52;20;20;
46885;PMS5003;32622;48.202;11.326;2023-08-21T07:29:55;21;21;
46885;PMS5003;32622;48.202;11.326;2023-08-21T07:31:57;21;21;
46885;PMS5003;32622;48.202;11.326;2023-08-21T07:33:59;21;21;
46885;PMS5003;32622;48.202;11.326;2023-08-21T07:36:02;20;20;
46885;PMS5003;32622;48.202;11.326;2023-08-21T07:38:06;20;20;
46885;PMS5003;32622;48.202;11.326;2023-08-21T07:40:08;21;21;
46885;PMS5003;32622;48.202;11.326;2023-08-21T07:42:10;22;21;
46885;PMS5003;32622;48.202;11.326;2023-08-21T07:44:13;22;21;
46885;PMS5003;32622;48.202;11.326;2023-08-21T07:46:15;24;22;
46885;PMS5003;32622;48.202;11.326;2023-08-21T07:48:17;23;21;
46885;PMS5003;32622;48.202;11.326;2023-08-21T07:50:19;24;21;
46885;PMS5003;32622;48.202;11.326;2023-08-21T07:52:21;22;20;
46885;PMS5003;32622;48.202;11.326;2023-08-21T07:54:23;21;18;
46885;PMS5003;32622;48.202;11.326;2023-08-21T07:56:26;21;19;
46885;PMS5003;32622;48.202;11.326;2023-08-21T07:58:28;22;19;
46885;PMS5003;32622;48.202;11.326;2023-08-21T08:00:30;21;19;
46885;PMS5003;32622;48.202;11.326;2023-08-21T08:02:33;21;19;
46885;PMS5003;32622;48.202;11.326;2023-08-21T08:04:35;21;19;
46885;PMS5003;32622;48.202;11.326;2023-08-21T08:06:37;21;20;
46885;PMS5003;32622;48.202;11.326;2023-08-21T08:08:39;21;20;
46885;PMS5003;32622;48.202;11.326;2023-08-21T08:10:41;21;20;
46885;PMS5003;32622;48.202;11.326;2023-08-21T08:12:43;21;20;
46885;PMS5003;32622;48.202;11.326;2023-08-21T08:14:45;21;20;
46885;PMS5003;32622;48.202;11.326;2023-08-21T08:16:47;21;20;
46885;PMS5003;32622;48.202;11.326;2023-08-21T08:18:49;19;19;
46885;PMS5003;32622;48.202;11.326;2023-08-21T08:20:51;19;19;
46885;PMS5003;32622;48.202;11.326;2023-08-21T08:22:54;19;19;
46885;PMS5003;32622;48.202;11.326;2023-08-21T08:24:56;18;18;
46885;PMS5003;32622;48.202;11.326;2023-08-21T08:26:58;18;18;
46885;PMS5003;32622;48.202;11.326;2023-08-21T08:29:00;18;18;
46885;PMS5003;32622;48.202;11.326;2023-08-21T08:31:02;19;19;
46885;PMS5003;32622;48.202;11.326;2023-08-21T08:33:04;19;19;
46885;PMS5003;32622;48.202;11.326;2023-08-21T08:35:07;19;19;
46885;PMS5003;32622;48.202;11.326;2023-08-21T08:37:09;21;19;
46885;PMS5003;32622;48.202;11.326;2023-08-21T08:39:11;21;19;
46885;PMS5003;32622;48.202;11.326;2023-08-21T08:41:16;21;19;
46885;PMS5003;32622;48.202;11.326;2023-08-21T08:43:24;20;19;
46885;PMS5003;32622;48.202;11.326;2023-08-21T08:45:29;20;19;
46885;PMS5003;32622;48.202;11.326;2023-08-21T08:47:31;20;19;
46885;PMS5003;32622;48.202;11.326;2023-08-21T08:49:34;20;19;
46885;PMS5003;32622;48.202;11.326;2023-08-21T08:51:38;20;19;
46885;PMS5003;32622;48.202;11.326;2023-08-21T08:53:43;20;19;
46885;PMS5003;32622;48.202;11.326;2023-08-21T08:55:46;20;19;
46885;PMS5003;32622;48.202;11.326;2023-08-21T08:57:48;20;19;
46885;PMS5003;32622;48.202;11.326;2023-08-21T08:59:50;20;19;
46885;PMS5003;32622;48.202;11.326;2023-08-21T09:01:52;19;18;
46885;PMS5003;32622;48.202;11.326;2023-08-21T09:03:55;19;18;
46885;PMS5003;32622;48.202;11.326;2023-08-21T09:05:57;19;18;
46885;PMS5003;32622;48.202;11.326;2023-08-21T09:08:03;18;17;
46885;PMS5003;32622;48.202;11.326;2023-08-21T09:10:12;18;17;
46885;PMS5003;32622;48.202;11.326;2023-08-21T09:12:16;18;17;
46885;PMS5003;32622;48.202;11.326;2023-08-21T09:14:25;19;18;
46885;PMS5003;32622;48.202;11.326;2023-08-21T09:16:29;19;18;
46885;PMS5003;32622;48.202;11.326;2023-08-21T09:18:33;19;18;
46885;PMS5003;32622;48.202;11.326;2023-08-21T09:20:36;19;18;
46885;PMS5003;32622;48.202;11.326;2023-08-21T09:22:38;19;18;
46885;PMS5003;32622;48.202;11.326;2023-08-21T09:24:40;19;18;
46885;PMS5003;32622;48.202;11.326;2023-08-21T09:27:01;19;18;
46885;PMS5003;32622;48.202;11.326;2023-08-21T09:29:03;19;18;
46885;PMS5003;32622;48.202;11.326;2023-08-21T09:31:06;19;18;
46885;PMS5003;32622;48.202;11.326;2023-08-21T09:33:08;18;17;
46885;PMS5003;32622;48.202;11.326;2023-08-21T09:35:13;18;17;
46885;PMS5003;32622;48.202;11.326;2023-08-21T09:37:16;18;17;
46885;PMS5003;32622;48.202;11.326;2023-08-21T09:39:18;16;16;
46885;PMS5003;32622;48.202;11.326;2023-08-21T09:41:20;16;16;
46885;PMS5003;32622;48.202;11.326;2023-08-21T09:43:23;16;16;
46885;PMS5003;32622;48.202;11.326;2023-08-21T09:45:27;18;18;
46885;PMS5003;32622;48.202;11.326;2023-08-21T09:47:29;19;19;
46885;PMS5003;32622;48.202;11.326;2023-08-21T09:49:32;19;19;
46885;PMS5003;32622;48.202;11.326;2023-08-21T09:51:35;19;19;
46885;PMS5003;32622;48.202;11.326;2023-08-21T09:53:38;18;18;
46885;PMS5003;32622;48.202;11.326;2023-08-21T09:55:41;18;18;
46885;PMS5003;32622;48.202;11.326;2023-08-21T09:57:44;19;19;
46885;PMS5003;32622;48.202;11.326;2023-08-21T09:59:47;20;20;
46885;PMS5003;32622;48.202;11.326;2023-08-21T10:01:52;20;20;
46885;PMS5003;32622;48.202;11.326;2023-08-21T10:03:55;20;20;
46885;PMS5003;32622;48.202;11.326;2023-08-21T10:06:01;19;19;
46885;PMS5003;32622;48.202;11.326;2023-08-21T10:08:05;19;19;
46885;PMS5003;32622;48.202;11.326;2023-08-21T10:10:08;19;19;
46885;PMS5003;32622;48.202;11.326;2023-08-21T10:12:12;19;19;
46885;PMS5003;32622;48.202;11.326;2023-08-21T10:14:15;19;19;
46885;PMS5003;32622;48.202;11.326;2023-08-21T10:16:18;19;19;
46885;PMS5003;32622;48.202;11.326;2023-08-21T10:18:21;19;19;
46885;PMS5003;32622;48.202;11.326;2023-08-21T10:20:25;19;19;
46885;PMS5003;32622;48.202;11.326;2023-08-21T10:22:43;20;20;
46885;PMS5003;32622;48.202;11.326;2023-08-21T10:24:46;20;20;
46885;PMS5003;32622;48.202;11.326;2023-08-21T10:26:49;20;20;
46885;PMS5003;32622;48.202;11.326;2023-08-21T10:28:51;20;20;
46885;PMS5003;32622;48.202;11.326;2023-08-21T10:30:55;20;20;
46885;PMS5003;32622;48.202;11.326;2023-08-21T10:32:57;20;20;
46885;PMS5003;32622;48.202;11.326;2023-08-21T10:35:00;19;19;
46885;PMS5003;32622;48.202;11.326;2023-08-21T10:37:04;19;19;
46885;PMS5003;32622;48.202;11.326;2023-08-21T10:39:16;19;19;
46885;PMS5003;32622;48.202;11.326;2023-08-21T10:41:19;20;19;
46885;PMS5003;32622;48.202;11.326;2023-08-21T10:43:44;20;19;
46885;PMS5003;32622;48.202;11.326;2023-08-21T10:45:53;20;19;
46885;PMS5003;32622;48.202;11.326;2023-08-21T10:47:56;19;18;
46885;PMS5003;32622;48.202;11.326;2023-08-21T10:50:00;19;18;
46885;PMS5003;32622;48.202;11.326;2023-08-21T10:52:03;19;18;
46885;PMS5003;32622;48.202;11.326;2023-08-21T10:54:10;20;18;
46885;PMS5003;32622;48.202;11.326;2023-08-21T10:56:13;20;18;
46885;PMS5003;32622;48.202;11.326;2023-08-21T10:58:15;20;18;
46885;PMS5003;32622;48.202;11.326;2023-08-21T11:00:17;19;18;
46885;PMS5003;32622;48.202;11.326;2023-08-21T11:02:20;19;18;
46885;PMS5003;32622;48.202;11.326;2023-08-21T11:04:23;19;18;
46885;PMS5003;32622;48.202;11.326;2023-08-21T11:06:25;18;16;
46885;PMS5003;32622;48.202;11.326;2023-08-21T11:08:27;18;16;
46885;PMS5003;32622;48.202;11.326;2023-08-21T11:10:31;18;16;
46885;PMS5003;32622;48.202;11.326;2023-08-21T11:12:33;18;16;
46885;PMS5003;32622;48.202;11.326;2023-08-21T11:14:35;19;17;
46885;PMS5003;32622;48.202;11.326;2023-08-21T11:16:38;19;17;
46885;PMS5003;32622;48.202;11.326;2023-08-21T11:18:40;18;17;
46885;PMS5003;32622;48.202;11.326;2023-08-21T11:20:42;18;17;
46885;PMS5003;32622;48.202;11.326;2023-08-21T11:22:44;18;17;
46885;PMS5003;32622;48.202;11.326;2023-08-21T11:24:47;19;17;
46885;PMS5003;32622;48.202;11.326;2023-08-21T11:26:49;19;17;
46885;PMS5003;32622;48.202;11.326;2023-08-21T11:28:52;19;17;
46885;PMS5003;32622;48.202;11.326;2023-08-21T11:30:54;18;16;
46885;PMS5003;32622;48.202;11.326;2023-08-21T11:33:04;18;16;
46885;PMS5003;32622;48.202;11.326;2023-08-21T11:35:07;18;16;
46885;PMS5003;32622;48.202;11.326;2023-08-21T11:37:09;17;16;
46885;PMS5003;32622;48.202;11.326;2023-08-21T11:39:12;17;16;
46885;PMS5003;32622;48.202;11.326;2023-08-21T11:41:14;17;16;
46885;PMS5003;32622;48.202;11.326;2023-08-21T11:43:16;17;17;
46885;PMS5003;32622;48.202;11.326;2023-08-21T11:45:20;17;17;
46885;PMS5003;32622;48.202;11.326;2023-08-21T11:47:22;17;17;
46885;PMS5003;32622;48.202;11.326;2023-08-21T11:49:31;17;17;
46885;PMS5003;32622;48.202;11.326;2023-08-21T11:51:37;17;17;
46885;PMS5003;32622;48.202;11.326;2023-08-21T11:53:40;17;17;
46885;PMS5003;32622;48.202;11.326;2023-08-21T11:55:43;18;17;
46885;PMS5003;32622;48.202;11.326;2023-08-21T11:57:46;18;17;
46885;PMS5003;32622;48.202;11.326;2023-08-21T11:59:49;18;17;
46885;PMS5003;32622;48.202;11.326;2023-08-21T12:01:52;17;17;
46885;PMS5003;32622;48.202;11.326;2023-08-21T12:03:54;17;17;
46885;PMS5003;32622;48.202;11.326;2023-08-21T12:05:56;17;17;
46885;PMS5003;32622;48.202;11.326;2023-08-21T12:07:58;18;17;
46885;PMS5003;32622;48.202;11.326;2023-08-21T12:10:00;17;16;
46885;PMS5003;32622;48.202;11.326;2023-08-21T12:12:03;18;17;
46885;PMS5003;32622;48.202;11.326;2023-08-21T12:14:06;17;16;
46885;PMS5003;32622;48.202;11.326;2023-08-21T12:16:08;18;17;
46885;PMS5003;32622;48.202;11.326;2023-08-21T12:18:11;19;18;
46885;PMS5003;32622;48.202;11.326;2023-08-21T12:20:13;18;17;
46885;PMS5003;32622;48.202;11.326;2023-08-21T12:22:15;18;17;
46885;PMS5003;32622;48.202;11.326;2023-08-21T12:24:17;17;17;
46885;PMS5003;32622;48.202;11.326;2023-08-21T12:26:19;19;19;
46885;PMS5003;32622;48.202;11.326;2023-08-21T12:28:21;18;18;
46885;PMS5003;32622;48.202;11.326;2023-08-21T12:30:23;20;20;
46885;PMS5003;32622;48.202;11.326;2023-08-21T12:32:26;20;20;
46885;PMS5003;32622;48.202;11.326;2023-08-21T12:34:29;20;20;
46885;PMS5003;32622;48.202;11.326;2023-08-21T12:36:33;20;20;
46885;PMS5003;32622;48.202;11.326;2023-08-21T12:38:35;20;20;
46885;PMS5003;32622;48.202;11.326;2023-08-21T12:40:38;20;20;
46885;PMS5003;32622;48.202;11.326;2023-08-21T12:42:40;20;20;
46885;PMS5003;32622;48.202;11.326;2023-08-21T12:44:42;20;20;
46885;PMS5003;32622;48.202;11.326;2023-08-21T12:46:44;20;20;
46885;PMS5003;32622;48.202;11.326;2023-08-21T12:48:46;20;20;
46885;PMS5003;32622;48.202;11.326;2023-08-21T12:50:48;20;20;
46885;PMS5003;32622;48.202;11.326;2023-08-21T12:52:50;20;20;
46885;PMS5003;32622;48.202;11.326;2023-08-21T12:54:53;20;20;
46885;PMS5003;32622;48.202;11.326;2023-08-21T12:56:55;19;19;
46885;PMS5003;32622;48.202;11.326;2023-08-21T12:58:57;19;19;
46885;PMS5003;32622;48.202;11.326;2023-08-21T13:00:59;19;19;
46885;PMS5003;32622;48.202;11.326;2023-08-21T13:03:01;18;18;
46885;PMS5003;32622;48.202;11.326;2023-08-21T13:05:03;18;18;
46885;PMS5003;32622;48.202;11.326;2023-08-21T13:07:06;18;18;
46885;PMS5003;32622;48.202;11.326;2023-08-21T13:09:08;18;18;
46885;PMS5003;32622;48.202;11.326;2023-08-21T13:11:10;18;18;
46885;PMS5003;32622;48.202;11.326;2023-08-21T13:13:12;18;18;
46885;PMS5003;32622;48.202;11.326;2023-08-21T13:15:14;18;18;
46885;PMS5003;32622;48.202;11.326;2023-08-21T13:17:16;18;18;
46885;PMS5003;32622;48.202;11.326;2023-08-21T13:19:18;18;18;
46885;PMS5003;32622;48.202;11.326;2023-08-21T13:21:20;18;18;